E.r Auckland — D5MH6 — position and weather

sailwx.info

Track history (hours):
 
Tides and Currents Weather Stations Pressure Air Temp Water Temp Dewpoint Dewpoint Depression Visibility Wind Speed Wind Dir Waves Ship Positions

E.r Auckland

Last reported at 2017-Dec-19 07:42 UTC. Time now 2018-Feb-24 04:40 UTC.
Position N 36°08' W 005°25'.
Warning: this ship's position is months out of date.

Length 140 m; draft 6.8 m.

Type: Cargo ship. MMSI: 636092740.

Date/timePositionNaut miles runAvg speedWind from/ knotsBaromVisibWave heightAir tempDewpointWater temp
2017-Dec-19 07:42N 36°08' W 005°25'0 0.0
2017-Dec-19 07:30N 36°08' W 005°25'4 0.2
2017-Dec-18 06:35N 36°04' W 005°22'0 1.5
2017-Dec-18 06:30N 36°04' W 005°22'5 9.2
2017-Dec-18 06:00N 36°05' W 005°17'611.1
2017-Dec-18 05:30N 36°08' W 005°11'  
2017-Dec-15 15:21N 36°05' W 005°15'512.0
2017-Dec-15 14:56N 36°05' W 005°21'5 0.7
2017-Dec-15 07:28N 36°08' W 005°26'0 0.0
2017-Dec-15 06:58N 36°08' W 005°26'0 0.0
2017-Dec-15 06:31N 36°08' W 005°26'0 0.0
2017-Dec-15 06:01N 36°08' W 005°26'0 0.0
2017-Dec-15 05:31N 36°08' W 005°26'0 0.0
2017-Dec-15 04:51N 36°08' W 005°26'0 0.0
2017-Dec-15 04:21N 36°08' W 005°26'0 0.0
2017-Dec-15 03:57N 36°08' W 005°26'0 0.2
2017-Dec-15 02:30N 36°08' W 005°26'2 0.0
2017-Dec-13 04:40N 36°10' W 005°25'0 0.0
2017-Dec-13 04:25N 36°10' W 005°25'0 0.0
2017-Dec-13 03:55N 36°10' W 005°25'0 0.0
2017-Dec-13 02:13N 36°10' W 005°25'0 0.0
2017-Dec-13 00:54N 36°10' W 005°25'0 0.0
2017-Dec-13 00:30N 36°10' W 005°25'13 0.6
2017-Dec-12 03:45N 36°00' W 005°15'312.5
2017-Dec-12 03:29N 35°59' W 005°11'612.5
2017-Dec-12 03:00N 35°55' W 005°05'2 3.9
2017-Dec-12 02:30N 35°54' W 005°03'1 1.7
2017-Dec-12 02:00N 35°54' W 005°05'1 1.6
2017-Dec-12 01:30N 35°54' W 005°06'1 1.7
2017-Dec-12 01:00N 35°54' W 005°07'1 1.4
2017-Dec-12 00:30N 35°54' W 005°07'1 1.3
2017-Dec-12 00:00N 35°54' W 005°08'1 1.3
2017-Dec-11 23:30N 35°53' W 005°09'1 1.3
2017-Dec-11 23:00N 35°53' W 005°10'1 1.2
2017-Dec-11 22:30N 35°53' W 005°10'0 0.9
2017-Dec-11 22:00N 35°52' W 005°10'2 3.9
2017-Dec-11 21:30N 35°52' W 005°08'2 3.5
2017-Dec-11 20:58N 35°52' W 005°05'1 3.1
2017-Dec-11 20:30N 35°51' W 005°04'1 1.7
2017-Dec-11 20:00N 35°51' W 005°03'1 2.1
2017-Dec-11 19:30N 35°51' W 005°04'1 1.9
2017-Dec-11 19:00N 35°51' W 005°05'1 1.9
2017-Dec-11 18:30N 35°52' W 005°06'1 1.7
2017-Dec-11 18:00N 35°52' W 005°07'1 1.8
2017-Dec-11 17:26N 35°52' W 005°09'269 7.2
2017-Dec-10 04:11N 38°11' W 009°57'312.7
2017-Dec-10 03:57N 38°14' W 009°58'613.0
2017-Dec-10 03:30N 38°19' W 009°60'713.3
2017-Dec-10 03:00N 38°26' W 010°02'713.3
2017-Dec-10 02:30N 38°32' W 010°04'613.1
2017-Dec-10 02:01N 38°39' W 010°05'612.9
2017-Dec-10 01:30N 38°45' W 010°06'612.8
2017-Dec-10 01:01N 38°51' W 010°06'612.9
2017-Dec-10 00:30N 38°57' W 010°03'713.2
2017-Dec-10 00:01N 39°03' W 009°60'713.1
2017-Dec-09 23:30N 39°10' W 009°57'612.7
2017-Dec-09 23:00N 39°16' W 009°54'612.7
2017-Dec-09 22:30N 39°21' W 009°51'612.3
2017-Dec-09 22:01N 39°27' W 009°48'612.2
2017-Dec-09 21:31N 39°33' W 009°45'812.6
2017-Dec-09 20:51N 39°40' W 009°40'9112.6
2017-Dec-09 13:36N 41°04' W 008°52'312.9
2017-Dec-09 13:24N 41°06' W 008°49'512.7
2017-Dec-09 13:00N 41°09' W 008°44'3 6.2
2017-Dec-09 12:30N 41°11' W 008°42'0 0.0
2017-Dec-09 12:00N 41°11' W 008°42'0 0.0
2017-Dec-09 11:30N 41°11' W 008°42'0 0.0
2017-Dec-09 11:00N 41°11' W 008°42'0 0.0
2017-Dec-09 10:30N 41°11' W 008°42'0 0.0
2017-Dec-09 10:00N 41°11' W 008°42'0 0.0
2017-Dec-09 09:30N 41°11' W 008°42'0 0.0
2017-Dec-09 09:00N 41°11' W 008°42'0 0.0
2017-Dec-09 08:30N 41°11' W 008°42'0 0.0
2017-Dec-09 08:00N 41°11' W 008°42'  
Track history (hours):
 
Tides and Currents Weather Stations Pressure Air Temp Water Temp Dewpoint Dewpoint Depression Visibility Wind Speed Wind Dir Waves Ship Positions

E.r Auckland

Last reported at 2017-Dec-19 07:42 UTC. Time now 2018-Feb-24 04:40 UTC.
Position N 36°08' W 005°25'.
Warning: this ship's position is months out of date.

Length 140 m; draft 6.8 m.

Type: Cargo ship. MMSI: 636092740.

Date/timePositionNaut miles runAvg speedWind from/ knotsBaromVisibWave heightAir tempDewpointWater temp
2017-Dec-19 07:42N 36°08' W 005°25'0 0.0
2017-Dec-19 07:30N 36°08' W 005°25'4 0.2
2017-Dec-18 06:35N 36°04' W 005°22'0 1.5
2017-Dec-18 06:30N 36°04' W 005°22'5 9.2
2017-Dec-18 06:00N 36°05' W 005°17'611.1
2017-Dec-18 05:30N 36°08' W 005°11'  
2017-Dec-15 15:21N 36°05' W 005°15'512.0
2017-Dec-15 14:56N 36°05' W 005°21'5 0.7
2017-Dec-15 07:28N 36°08' W 005°26'0 0.0
2017-Dec-15 06:58N 36°08' W 005°26'0 0.0
2017-Dec-15 06:31N 36°08' W 005°26'0 0.0
2017-Dec-15 06:01N 36°08' W 005°26'0 0.0
2017-Dec-15 05:31N 36°08' W 005°26'0 0.0
2017-Dec-15 04:51N 36°08' W 005°26'0 0.0
2017-Dec-15 04:21N 36°08' W 005°26'0 0.0
2017-Dec-15 03:57N 36°08' W 005°26'0 0.2
2017-Dec-15 02:30N 36°08' W 005°26'2 0.0
2017-Dec-13 04:40N 36°10' W 005°25'0 0.0
2017-Dec-13 04:25N 36°10' W 005°25'0 0.0
2017-Dec-13 03:55N 36°10' W 005°25'0 0.0
2017-Dec-13 02:13N 36°10' W 005°25'0 0.0
2017-Dec-13 00:54N 36°10' W 005°25'0 0.0
2017-Dec-13 00:30N 36°10' W 005°25'13 0.6
2017-Dec-12 03:45N 36°00' W 005°15'312.5
2017-Dec-12 03:29N 35°59' W 005°11'612.5
2017-Dec-12 03:00N 35°55' W 005°05'2 3.9
2017-Dec-12 02:30N 35°54' W 005°03'1 1.7
2017-Dec-12 02:00N 35°54' W 005°05'1 1.6
2017-Dec-12 01:30N 35°54' W 005°06'1 1.7
2017-Dec-12 01:00N 35°54' W 005°07'1 1.4
2017-Dec-12 00:30N 35°54' W 005°07'1 1.3
2017-Dec-12 00:00N 35°54' W 005°08'1 1.3
2017-Dec-11 23:30N 35°53' W 005°09'1 1.3
2017-Dec-11 23:00N 35°53' W 005°10'1 1.2
2017-Dec-11 22:30N 35°53' W 005°10'0 0.9
2017-Dec-11 22:00N 35°52' W 005°10'2 3.9
2017-Dec-11 21:30N 35°52' W 005°08'2 3.5
2017-Dec-11 20:58N 35°52' W 005°05'1 3.1
2017-Dec-11 20:30N 35°51' W 005°04'1 1.7
2017-Dec-11 20:00N 35°51' W 005°03'1 2.1
2017-Dec-11 19:30N 35°51' W 005°04'1 1.9
2017-Dec-11 19:00N 35°51' W 005°05'1 1.9
2017-Dec-11 18:30N 35°52' W 005°06'1 1.7
2017-Dec-11 18:00N 35°52' W 005°07'1 1.8
2017-Dec-11 17:26N 35°52' W 005°09'269 7.2
2017-Dec-10 04:11N 38°11' W 009°57'312.7
2017-Dec-10 03:57N 38°14' W 009°58'613.0
2017-Dec-10 03:30N 38°19' W 009°60'713.3
2017-Dec-10 03:00N 38°26' W 010°02'713.3
2017-Dec-10 02:30N 38°32' W 010°04'613.1
2017-Dec-10 02:01N 38°39' W 010°05'612.9
2017-Dec-10 01:30N 38°45' W 010°06'612.8
2017-Dec-10 01:01N 38°51' W 010°06'612.9
2017-Dec-10 00:30N 38°57' W 010°03'713.2
2017-Dec-10 00:01N 39°03' W 009°60'713.1
2017-Dec-09 23:30N 39°10' W 009°57'612.7
2017-Dec-09 23:00N 39°16' W 009°54'612.7
2017-Dec-09 22:30N 39°21' W 009°51'612.3
2017-Dec-09 22:01N 39°27' W 009°48'612.2
2017-Dec-09 21:31N 39°33' W 009°45'812.6
2017-Dec-09 20:51N 39°40' W 009°40'9112.6
2017-Dec-09 13:36N 41°04' W 008°52'312.9
2017-Dec-09 13:24N 41°06' W 008°49'512.7
2017-Dec-09 13:00N 41°09' W 008°44'3 6.2
2017-Dec-09 12:30N 41°11' W 008°42'0 0.0
2017-Dec-09 12:00N 41°11' W 008°42'0 0.0
2017-Dec-09 11:30N 41°11' W 008°42'0 0.0
2017-Dec-09 11:00N 41°11' W 008°42'0 0.0
2017-Dec-09 10:30N 41°11' W 008°42'0 0.0
2017-Dec-09 10:00N 41°11' W 008°42'0 0.0
2017-Dec-09 09:30N 41°11' W 008°42'0 0.0
2017-Dec-09 09:00N 41°11' W 008°42'0 0.0
2017-Dec-09 08:30N 41°11' W 008°42'0 0.0
2017-Dec-09 08:00N 41°11' W 008°42'  

Dump ship's entire track history